Aviation Digital Data Service (ADDS)

Output produced by METARs form (1928 UTC 21 September 2021)
found at http://www.aviationweather.gov/metar/data/
 
KPBI 211720Z 2118/2218 10010KT P6SM VCTS SCT030CB BKN050 
     FM220000 VRB05KT P6SM FEW025 SCT250 
     FM221400 12007KT P6SM SCT030 SCT050 
     FM221700 16010KT P6SM VCTS SCT030CB BKN050